sensor_id;sensor_type;location;lat;lon;timestamp;pressure;altitude;pressure_sealevel;temperature;humidity
77079;BME280;66004;55.096;38.760;2023-07-02T00:01:44;98452.03;;;16.85;75.59
77079;BME280;66004;55.096;38.760;2023-07-02T00:04:10;98446.41;;;16.78;75.89
77079;BME280;66004;55.096;38.760;2023-07-02T00:06:39;98452.84;;;16.82;75.40
77079;BME280;66004;55.096;38.760;2023-07-02T00:09:08;98465.03;;;16.86;75.79
77079;BME280;66004;55.096;38.760;2023-07-02T00:11:35;98461.38;;;16.85;75.73
77079;BME280;66004;55.096;38.760;2023-07-02T00:14:01;98452.84;;;16.85;75.87
77079;BME280;66004;55.096;38.760;2023-07-02T00:16:26;98450.41;;;16.84;75.52
77079;BME280;66004;55.096;38.760;2023-07-02T00:18:52;98460.13;;;16.90;75.48
77079;BME280;66004;55.096;38.760;2023-07-02T00:21:21;98454.44;;;16.90;75.74
77079;BME280;66004;55.096;38.760;2023-07-02T00:23:47;98456.41;;;16.93;75.75
77079;BME280;66004;55.096;38.760;2023-07-02T00:26:13;98458.41;;;16.96;75.71
77079;BME280;66004;55.096;38.760;2023-07-02T00:28:39;98450.72;;;16.93;75.56
77079;BME280;66004;55.096;38.760;2023-07-02T00:31:04;98445.53;;;16.88;75.57
77079;BME280;66004;55.096;38.760;2023-07-02T00:33:31;98451.94;;;16.96;75.31
77079;BME280;66004;55.096;38.760;2023-07-02T00:35:57;98450.72;;;16.93;75.52
77079;BME280;66004;55.096;38.760;2023-07-02T00:38:23;98460.81;;;17.01;75.50
77079;BME280;66004;55.096;38.760;2023-07-02T00:40:48;98450.28;;;16.98;75.63
77079;BME280;66004;55.096;38.760;2023-07-02T00:43:14;98453.50;;;17.00;75.60
77079;BME280;66004;55.096;38.760;2023-07-02T00:45:39;98460.03;;;16.97;75.65
77079;BME280;66004;55.096;38.760;2023-07-02T00:48:06;98463.66;;;17.01;75.60
77079;BME280;66004;55.096;38.760;2023-07-02T00:50:32;98466.88;;;17.03;75.72
77079;BME280;66004;55.096;38.760;2023-07-02T00:52:58;98456.75;;;16.99;75.51
77079;BME280;66004;55.096;38.760;2023-07-02T00:55:24;98463.16;;;17.06;75.41
77079;BME280;66004;55.096;38.760;2023-07-02T00:57:50;98472.94;;;17.05;75.30
77079;BME280;66004;55.096;38.760;2023-07-02T01:00:15;98475.78;;;17.05;75.30
77079;BME280;66004;55.096;38.760;2023-07-02T01:02:41;98470.91;;;17.02;75.39
77079;BME280;66004;55.096;38.760;2023-07-02T01:05:16;98459.25;;;16.93;75.21
77079;BME280;66004;55.096;38.760;2023-07-02T01:07:41;98472.25;;;16.94;75.48
77079;BME280;66004;55.096;38.760;2023-07-02T01:10:08;98467.47;;;16.84;76.01
77079;BME280;66004;55.096;38.760;2023-07-02T01:12:34;98486.84;;;16.92;75.78
77079;BME280;66004;55.096;38.760;2023-07-02T01:15:02;98485.25;;;16.91;75.86
77079;BME280;66004;55.096;38.760;2023-07-02T01:17:31;98497.03;;;16.90;75.86
77079;BME280;66004;55.096;38.760;2023-07-02T01:20:09;98490.16;;;16.87;75.88
77079;BME280;66004;55.096;38.760;2023-07-02T01:22:35;98502.75;;;16.86;75.76
77079;BME280;66004;55.096;38.760;2023-07-02T01:25:01;98501.94;;;16.86;75.74
77079;BME280;66004;55.096;38.760;2023-07-02T01:27:30;98484.56;;;16.77;75.47
77079;BME280;66004;55.096;38.760;2023-07-02T01:29:56;98499.94;;;16.83;75.74
77079;BME280;66004;55.096;38.760;2023-07-02T01:32:22;98507.22;;;16.84;75.60
77079;BME280;66004;55.096;38.760;2023-07-02T01:34:47;98511.25;;;16.90;75.77
77079;BME280;66004;55.096;38.760;2023-07-02T01:37:14;98506.31;;;16.94;75.63
77079;BME280;66004;55.096;38.760;2023-07-02T01:39:40;98505.50;;;16.97;75.83
77079;BME280;66004;55.096;38.760;2023-07-02T01:42:14;98507.06;;;17.02;75.54
77079;BME280;66004;55.096;38.760;2023-07-02T01:44:43;98505.44;;;17.01;75.17
77079;BME280;66004;55.096;38.760;2023-07-02T01:47:09;98515.94;;;17.07;75.34
77079;BME280;66004;55.096;38.760;2023-07-02T01:49:34;98514.72;;;17.08;75.24
77079;BME280;66004;55.096;38.760;2023-07-02T01:52:01;98522.00;;;17.09;75.14
77079;BME280;66004;55.096;38.760;2023-07-02T01:54:27;98522.00;;;17.09;75.01
77079;BME280;66004;55.096;38.760;2023-07-02T01:56:54;98526.47;;;17.10;74.83
77079;BME280;66004;55.096;38.760;2023-07-02T01:59:19;98516.75;;;17.04;74.97
77079;BME280;66004;55.096;38.760;2023-07-02T02:01:45;98528.81;;;17.16;75.16
77079;BME280;66004;55.096;38.760;2023-07-02T02:04:11;98532.06;;;17.18;75.06
77079;BME280;66004;55.096;38.760;2023-07-02T02:06:38;98529.63;;;17.20;74.94
77079;BME280;66004;55.096;38.760;2023-07-02T02:09:04;98527.16;;;17.22;74.84
77079;BME280;66004;55.096;38.760;2023-07-02T02:11:31;98533.50;;;17.37;74.69
77079;BME280;66004;55.096;38.760;2023-07-02T02:13:58;98535.81;;;17.45;74.35
77079;BME280;66004;55.096;38.760;2023-07-02T02:16:23;98538.19;;;17.50;74.30
77079;BME280;66004;55.096;38.760;2023-07-02T02:18:49;98541.00;;;17.54;74.10
77079;BME280;66004;55.096;38.760;2023-07-02T02:21:19;98541.44;;;17.52;73.99
77079;BME280;66004;55.096;38.760;2023-07-02T02:23:44;98538.09;;;17.61;74.02
77079;BME280;66004;55.096;38.760;2023-07-02T02:26:10;98539.63;;;17.66;73.80
77079;BME280;66004;55.096;38.760;2023-07-02T02:28:36;98535.03;;;17.76;73.68
77079;BME280;66004;55.096;38.760;2023-07-02T02:31:02;98507.97;;;17.64;73.52
77079;BME280;66004;55.096;38.760;2023-07-02T02:33:28;98541.06;;;17.81;73.55
77079;BME280;66004;55.096;38.760;2023-07-02T02:35:53;98539.56;;;17.73;73.56
77079;BME280;66004;55.096;38.760;2023-07-02T02:38:19;98530.66;;;17.71;73.79
77079;BME280;66004;55.096;38.760;2023-07-02T02:40:45;98530.28;;;17.69;73.71
77079;BME280;66004;55.096;38.760;2023-07-02T02:43:10;98529.06;;;17.66;73.99
77079;BME280;66004;55.096;38.760;2023-07-02T02:45:36;98530.28;;;17.69;74.23
77079;BME280;66004;55.096;38.760;2023-07-02T02:48:01;98528.25;;;17.66;73.79
77079;BME280;66004;55.096;38.760;2023-07-02T02:50:27;98532.16;;;17.79;73.69
77079;BME280;66004;55.096;38.760;2023-07-02T02:52:52;98542.69;;;17.82;73.85
77079;BME280;66004;55.096;38.760;2023-07-02T02:55:18;98534.94;;;17.86;73.73
77079;BME280;66004;55.096;38.760;2023-07-02T02:57:44;98539.34;;;17.91;73.63
77079;BME280;66004;55.096;38.760;2023-07-02T03:00:10;98549.91;;;17.90;73.41
77079;BME280;66004;55.096;38.760;2023-07-02T03:02:37;98539.34;;;17.91;73.63
77079;BME280;66004;55.096;38.760;2023-07-02T03:05:02;98520.72;;;17.86;73.57
77079;BME280;66004;55.096;38.760;2023-07-02T03:07:28;98529.91;;;17.98;73.51
77079;BME280;66004;55.096;38.760;2023-07-02T03:09:54;98533.50;;;18.02;73.41
77079;BME280;66004;55.096;38.760;2023-07-02T03:12:19;98539.97;;;18.06;73.39
77079;BME280;66004;55.096;38.760;2023-07-02T03:14:45;98522.97;;;17.99;73.44
77079;BME280;66004;55.096;38.760;2023-07-02T03:17:13;98535.84;;;18.11;73.45
77079;BME280;66004;55.096;38.760;2023-07-02T03:19:38;98538.25;;;18.12;73.33
77079;BME280;66004;55.096;38.760;2023-07-02T03:22:04;98522.41;;;18.11;73.25
77079;BME280;66004;55.096;38.760;2023-07-02T03:24:30;98534.44;;;18.22;73.14
77079;BME280;66004;55.096;38.760;2023-07-02T03:26:55;98536.41;;;18.29;73.12
77079;BME280;66004;55.096;38.760;2023-07-02T03:29:21;98534.28;;;18.33;73.03
77079;BME280;66004;55.096;38.760;2023-07-02T03:31:46;98527.44;;;18.27;72.67
77079;BME280;66004;55.096;38.760;2023-07-02T03:34:12;98530.63;;;18.33;73.09
77079;BME280;66004;55.096;38.760;2023-07-02T03:36:38;98532.19;;;18.37;72.75
77079;BME280;66004;55.096;38.760;2023-07-02T03:39:04;98545.41;;;18.51;72.86
77079;BME280;66004;55.096;38.760;2023-07-02T03:41:31;98546.53;;;18.57;72.36
77079;BME280;66004;55.096;38.760;2023-07-02T03:43:56;98542.75;;;18.64;72.43
77079;BME280;66004;55.096;38.760;2023-07-02T03:46:22;98549.56;;;18.70;71.92
77079;BME280;66004;55.096;38.760;2023-07-02T03:48:47;98542.22;;;18.73;71.67
77079;BME280;66004;55.096;38.760;2023-07-02T03:51:14;98547.81;;;18.80;71.85
77079;BME280;66004;55.096;38.760;2023-07-02T03:53:42;98552.53;;;18.90;71.91
77079;BME280;66004;55.096;38.760;2023-07-02T03:56:08;98548.53;;;19.31;70.46
77079;BME280;66004;55.096;38.760;2023-07-02T03:58:33;98542.75;;;19.78;68.96
77079;BME280;66004;55.096;38.760;2023-07-02T04:00:59;98551.63;;;20.20;67.44
77079;BME280;66004;55.096;38.760;2023-07-02T04:03:25;98547.44;;;20.94;65.96
77079;BME280;66004;55.096;38.760;2023-07-02T04:05:50;98558.50;;;22.00;62.35
77079;BME280;66004;55.096;38.760;2023-07-02T04:08:16;98554.88;;;23.15;59.92
77079;BME280;66004;55.096;38.760;2023-07-02T04:10:42;98562.91;;;23.55;58.50
77079;BME280;66004;55.096;38.760;2023-07-02T04:13:07;98570.16;;;23.47;58.08
77079;BME280;66004;55.096;38.760;2023-07-02T04:15:33;98574.88;;;23.06;59.14
77079;BME280;66004;55.096;38.760;2023-07-02T04:17:59;98560.63;;;22.89;59.78
77079;BME280;66004;55.096;38.760;2023-07-02T04:20:25;98558.09;;;22.66;59.86
77079;BME280;66004;55.096;38.760;2023-07-02T04:22:51;98581.25;;;22.33;60.96
77079;BME280;66004;55.096;38.760;2023-07-02T04:25:17;98575.09;;;22.05;61.68
77079;BME280;66004;55.096;38.760;2023-07-02T04:27:43;98577.06;;;21.79;62.75
77079;BME280;66004;55.096;38.760;2023-07-02T04:30:10;98575.78;;;21.67;63.06
77079;BME280;66004;55.096;38.760;2023-07-02T04:32:37;98576.56;;;21.68;63.08
77079;BME280;66004;55.096;38.760;2023-07-02T04:35:09;98582.38;;;21.64;62.82
77079;BME280;66004;55.096;38.760;2023-07-02T04:37:35;98581.31;;;21.74;62.91
77079;BME280;66004;55.096;38.760;2023-07-02T04:40:01;98578.78;;;21.76;62.96
77079;BME280;66004;55.096;38.760;2023-07-02T04:42:34;98585.09;;;21.84;62.65
77079;BME280;66004;55.096;38.760;2023-07-02T04:45:04;98584.81;;;21.95;61.91
77079;BME280;66004;55.096;38.760;2023-07-02T04:47:29;98584.72;;;21.99;61.86
77079;BME280;66004;55.096;38.760;2023-07-02T04:49:55;98586.13;;;21.77;61.84
77079;BME280;66004;55.096;38.760;2023-07-02T04:52:20;98589.84;;;21.62;62.45
77079;BME280;66004;55.096;38.760;2023-07-02T04:54:46;98589.53;;;21.72;62.22
77079;BME280;66004;55.096;38.760;2023-07-02T04:57:11;98591.63;;;21.85;62.60
77079;BME280;66004;55.096;38.760;2023-07-02T04:59:39;98595.47;;;22.07;61.53
77079;BME280;66004;55.096;38.760;2023-07-02T05:02:04;98593.53;;;22.04;61.78
77079;BME280;66004;55.096;38.760;2023-07-02T05:04:30;98605.00;;;22.04;62.23
77079;BME280;66004;55.096;38.760;2023-07-02T05:06:55;98591.97;;;22.16;61.67
77079;BME280;66004;55.096;38.760;2023-07-02T05:09:21;98597.41;;;22.27;61.88
77079;BME280;66004;55.096;38.760;2023-07-02T05:11:46;98597.53;;;22.36;61.40
77079;BME280;66004;55.096;38.760;2023-07-02T05:14:12;98601.56;;;22.51;60.47
77079;BME280;66004;55.096;38.760;2023-07-02T05:16:37;98605.22;;;22.39;60.66
77079;BME280;66004;55.096;38.760;2023-07-02T05:19:03;98610.03;;;22.42;60.55
77079;BME280;66004;55.096;38.760;2023-07-02T05:21:28;98609.59;;;22.44;60.89
77079;BME280;66004;55.096;38.760;2023-07-02T05:23:53;98606.69;;;22.31;61.21
77079;BME280;66004;55.096;38.760;2023-07-02T05:26:19;98598.09;;;22.31;61.16
77079;BME280;66004;55.096;38.760;2023-07-02T05:28:44;98604.75;;;22.41;60.89
77079;BME280;66004;55.096;38.760;2023-07-02T05:31:10;98604.44;;;22.51;59.96
77079;BME280;66004;55.096;38.760;2023-07-02T05:33:35;98610.84;;;22.55;59.92
77079;BME280;66004;55.096;38.760;2023-07-02T05:36:01;98608.34;;;22.58;59.54
77079;BME280;66004;55.096;38.760;2023-07-02T05:38:26;98595.72;;;22.42;59.22
77079;BME280;66004;55.096;38.760;2023-07-02T05:40:52;98598.66;;;22.26;59.22
77079;BME280;66004;55.096;38.760;2023-07-02T05:43:18;98620.78;;;22.25;59.50
77079;BME280;66004;55.096;38.760;2023-07-02T05:45:43;98606.94;;;22.37;59.04
77079;BME280;66004;55.096;38.760;2023-07-02T05:48:09;98619.88;;;22.41;59.39
77079;BME280;66004;55.096;38.760;2023-07-02T05:50:34;98612.00;;;22.45;59.49
77079;BME280;66004;55.096;38.760;2023-07-02T05:53:00;98623.47;;;22.45;59.34
77079;BME280;66004;55.096;38.760;2023-07-02T05:55:25;98617.00;;;22.41;59.09
77079;BME280;66004;55.096;38.760;2023-07-02T05:57:51;98616.25;;;22.53;58.37
77079;BME280;66004;55.096;38.760;2023-07-02T06:00:16;98614.28;;;22.50;58.56
77079;BME280;66004;55.096;38.760;2023-07-02T06:02:42;98612.69;;;22.49;58.14
77079;BME280;66004;55.096;38.760;2023-07-02T06:05:08;98608.69;;;22.60;57.70
77079;BME280;66004;55.096;38.760;2023-07-02T06:07:33;98617.50;;;22.78;58.01
77079;BME280;66004;55.096;38.760;2023-07-02T06:09:59;98607.19;;;22.93;57.17
77079;BME280;66004;55.096;38.760;2023-07-02T06:12:24;98627.59;;;22.96;56.70
77079;BME280;66004;55.096;38.760;2023-07-02T06:14:50;98623.03;;;22.85;57.75
77079;BME280;66004;55.096;38.760;2023-07-02T06:17:15;98615.91;;;22.77;57.37
77079;BME280;66004;55.096;38.760;2023-07-02T06:19:41;98608.09;;;22.90;56.04
77079;BME280;66004;55.096;38.760;2023-07-02T06:22:07;98620.25;;;23.20;56.36
77079;BME280;66004;55.096;38.760;2023-07-02T06:24:32;98614.72;;;23.39;54.89
77079;BME280;66004;55.096;38.760;2023-07-02T06:26:58;98621.56;;;23.54;54.58
77079;BME280;66004;55.096;38.760;2023-07-02T06:29:23;98620.66;;;23.57;54.79
77079;BME280;66004;55.096;38.760;2023-07-02T06:31:50;98628.84;;;23.81;53.54
77079;BME280;66004;55.096;38.760;2023-07-02T06:34:16;98631.25;;;23.82;52.78
77079;BME280;66004;55.096;38.760;2023-07-02T06:36:42;98628.28;;;23.86;52.83
77079;BME280;66004;55.096;38.760;2023-07-02T06:39:08;98619.13;;;24.00;52.36
77079;BME280;66004;55.096;38.760;2023-07-02T06:41:37;98620.19;;;24.16;51.87
77079;BME280;66004;55.096;38.760;2023-07-02T06:44:03;98627.41;;;24.42;51.65
77079;BME280;66004;55.096;38.760;2023-07-02T06:46:29;98631.78;;;24.78;51.20
77079;BME280;66004;55.096;38.760;2023-07-02T06:48:55;98629.38;;;24.77;50.30
77079;BME280;66004;55.096;38.760;2023-07-02T06:51:21;98634.91;;;25.02;49.73
77079;BME280;66004;55.096;38.760;2023-07-02T06:53:47;98629.47;;;25.36;49.13
77079;BME280;66004;55.096;38.760;2023-07-02T06:56:13;98631.72;;;25.50;48.72
77079;BME280;66004;55.096;38.760;2023-07-02T06:58:44;98625.94;;;25.32;48.52
77079;BME280;66004;55.096;38.760;2023-07-02T07:01:10;98628.81;;;25.41;47.54
77079;BME280;66004;55.096;38.760;2023-07-02T07:03:36;98624.34;;;25.40;48.03
77079;BME280;66004;55.096;38.760;2023-07-02T07:06:02;98631.72;;;25.59;47.76
77079;BME280;66004;55.096;38.760;2023-07-02T07:08:28;98634.63;;;25.69;47.40
77079;BME280;66004;55.096;38.760;2023-07-02T07:10:53;98638.78;;;25.86;46.46
77079;BME280;66004;55.096;38.760;2023-07-02T07:13:19;98633.69;;;25.90;46.10
77079;BME280;66004;55.096;38.760;2023-07-02T07:15:44;98626.47;;;25.86;45.72
77079;BME280;66004;55.096;38.760;2023-07-02T07:18:13;98638.47;;;25.84;45.64
77079;BME280;66004;55.096;38.760;2023-07-02T07:20:39;98639.13;;;25.79;46.35
77079;BME280;66004;55.096;38.760;2023-07-02T07:23:08;98646.22;;;26.06;45.40
77079;BME280;66004;55.096;38.760;2023-07-02T07:25:34;98655.81;;;26.21;45.02
77079;BME280;66004;55.096;38.760;2023-07-02T07:27:59;98651.59;;;25.67;45.72
77079;BME280;66004;55.096;38.760;2023-07-02T07:30:25;98653.44;;;25.33;46.52
77079;BME280;66004;55.096;38.760;2023-07-02T07:32:51;98643.88;;;25.45;46.72
77079;BME280;66004;55.096;38.760;2023-07-02T07:35:20;98642.97;;;25.76;46.17
77079;BME280;66004;55.096;38.760;2023-07-02T07:37:47;98640.09;;;25.76;46.23
77079;BME280;66004;55.096;38.760;2023-07-02T07:40:24;98642.78;;;25.61;46.85
77079;BME280;66004;55.096;38.760;2023-07-02T07:42:52;98656.97;;;25.46;47.17
77079;BME280;66004;55.096;38.760;2023-07-02T07:45:18;98653.78;;;25.44;47.32
77079;BME280;66004;55.096;38.760;2023-07-02T07:47:43;98656.97;;;25.37;45.56
77079;BME280;66004;55.096;38.760;2023-07-02T07:50:09;98654.66;;;25.22;46.65
77079;BME280;66004;55.096;38.760;2023-07-02T07:52:39;98647.06;;;25.06;47.32
77079;BME280;66004;55.096;38.760;2023-07-02T07:55:05;98651.69;;;24.95;47.78
77079;BME280;66004;55.096;38.760;2023-07-02T07:57:31;98648.03;;;25.03;47.74
77079;BME280;66004;55.096;38.760;2023-07-02T07:59:57;98643.22;;;25.00;46.14
77079;BME280;66004;55.096;38.760;2023-07-02T08:02:22;98645.91;;;24.95;46.51
77079;BME280;66004;55.096;38.760;2023-07-02T08:04:48;98646.78;;;25.14;46.19
77079;BME280;66004;55.096;38.760;2023-07-02T08:07:14;98637.41;;;25.22;46.17
77079;BME280;66004;55.096;38.760;2023-07-02T08:09:40;98644.34;;;25.34;46.60
77079;BME280;66004;55.096;38.760;2023-07-02T08:12:05;98654.91;;;25.56;45.51
77079;BME280;66004;55.096;38.760;2023-07-02T08:14:31;98644.84;;;25.51;44.91
77079;BME280;66004;55.096;38.760;2023-07-02T08:16:56;98647.34;;;25.31;44.53
77079;BME280;66004;55.096;38.760;2023-07-02T08:19:22;98648.22;;;25.18;44.81
77079;BME280;66004;55.096;38.760;2023-07-02T08:21:47;98648.78;;;25.26;45.47
77079;BME280;66004;55.096;38.760;2023-07-02T08:24:13;98651.38;;;25.02;44.89
77079;BME280;66004;55.096;38.760;2023-07-02T08:26:38;98658.25;;;24.73;46.06
77079;BME280;66004;55.096;38.760;2023-07-02T08:29:04;98659.22;;;24.70;46.75
77079;BME280;66004;55.096;38.760;2023-07-02T08:31:30;98658.00;;;24.80;45.71
77079;BME280;66004;55.096;38.760;2023-07-02T08:33:55;98657.34;;;24.76;45.12
77079;BME280;66004;55.096;38.760;2023-07-02T08:36:20;98661.13;;;24.73;45.77
77079;BME280;66004;55.096;38.760;2023-07-02T08:38:46;98659.59;;;24.81;45.93
77079;BME280;66004;55.096;38.760;2023-07-02T08:41:12;98651.03;;;24.91;45.67
77079;BME280;66004;55.096;38.760;2023-07-02T08:43:37;98649.50;;;25.08;45.71
77079;BME280;66004;55.096;38.760;2023-07-02T08:46:04;98667.69;;;25.05;45.33
77079;BME280;66004;55.096;38.760;2023-07-02T08:48:29;98655.53;;;25.01;45.34
77079;BME280;66004;55.096;38.760;2023-07-02T08:50:56;98655.19;;;24.99;45.18
77079;BME280;66004;55.096;38.760;2023-07-02T08:53:22;98662.63;;;25.09;44.83
77079;BME280;66004;55.096;38.760;2023-07-02T08:55:55;98648.91;;;25.22;45.09
77079;BME280;66004;55.096;38.760;2023-07-02T08:58:21;98638.56;;;25.34;44.75
77079;BME280;66004;55.096;38.760;2023-07-02T09:01:06;98641.50;;;25.62;45.00
77079;BME280;66004;55.096;38.760;2023-07-02T09:03:35;98632.38;;;25.73;44.50
77079;BME280;66004;55.096;38.760;2023-07-02T09:06:05;98635.13;;;25.76;43.82
77079;BME280;66004;55.096;38.760;2023-07-02T09:08:31;98638.47;;;25.75;43.94
77079;BME280;66004;55.096;38.760;2023-07-02T09:11:23;98636.72;;;25.68;44.54
77079;BME280;66004;55.096;38.760;2023-07-02T09:13:52;98636.25;;;25.70;44.37
77079;BME280;66004;55.096;38.760;2023-07-02T09:16:24;98656.38;;;25.60;43.99
77079;BME280;66004;55.096;38.760;2023-07-02T09:21:23;98650.47;;;25.64;43.33
77079;BME280;66004;55.096;38.760;2023-07-02T09:23:50;98646.31;;;25.65;43.50
77079;BME280;66004;55.096;38.760;2023-07-02T09:26:22;98641.81;;;25.55;44.00
77079;BME280;66004;55.096;38.760;2023-07-02T09:28:47;98655.06;;;25.52;43.66
77079;BME280;66004;55.096;38.760;2023-07-02T09:31:13;98659.56;;;25.53;44.11
77079;BME280;66004;55.096;38.760;2023-07-02T09:33:38;98649.50;;;25.49;43.75
77079;BME280;66004;55.096;38.760;2023-07-02T09:36:04;98645.78;;;25.48;43.46
77079;BME280;66004;55.096;38.760;2023-07-02T09:38:30;98654.13;;;25.55;42.95
77079;BME280;66004;55.096;38.760;2023-07-02T09:40:56;98650.13;;;25.53;41.48
77079;BME280;66004;55.096;38.760;2023-07-02T09:43:24;98659.25;;;25.51;39.76
77079;BME280;66004;55.096;38.760;2023-07-02T09:45:53;98641.47;;;25.43;39.43
77079;BME280;66004;55.096;38.760;2023-07-02T09:48:23;98650.44;;;25.45;40.21
77079;BME280;66004;55.096;38.760;2023-07-02T09:50:51;98648.69;;;25.57;40.71
77079;BME280;66004;55.096;38.760;2023-07-02T09:53:16;98644.91;;;25.79;40.82
77079;BME280;66004;55.096;38.760;2023-07-02T09:55:43;98647.47;;;25.95;40.49
77079;BME280;66004;55.096;38.760;2023-07-02T09:58:09;98640.13;;;26.13;40.27
77079;BME280;66004;55.096;38.760;2023-07-02T10:00:34;98644.28;;;26.30;40.06
77079;BME280;66004;55.096;38.760;2023-07-02T10:03:00;98637.06;;;26.26;40.14
77079;BME280;66004;55.096;38.760;2023-07-02T10:05:31;98635.00;;;26.17;40.96
77079;BME280;66004;55.096;38.760;2023-07-02T10:07:57;98645.91;;;26.13;41.27
77079;BME280;66004;55.096;38.760;2023-07-02T10:10:30;98644.75;;;26.01;39.09
77079;BME280;66004;55.096;38.760;2023-07-02T10:12:56;98651.34;;;26.01;38.78
77079;BME280;66004;55.096;38.760;2023-07-02T10:15:28;98649.25;;;26.11;38.79
77079;BME280;66004;55.096;38.760;2023-07-02T10:17:58;98651.97;;;26.06;39.03
77079;BME280;66004;55.096;38.760;2023-07-02T10:20:37;98643.00;;;26.03;39.90
77079;BME280;66004;55.096;38.760;2023-07-02T10:23:04;98645.72;;;26.16;40.47
77079;BME280;66004;55.096;38.760;2023-07-02T10:25:34;98650.66;;;26.34;40.24
77079;BME280;66004;55.096;38.760;2023-07-02T10:28:19;98642.31;;;26.55;40.27
77079;BME280;66004;55.096;38.760;2023-07-02T10:30:47;98643.53;;;26.82;39.50
77079;BME280;66004;55.096;38.760;2023-07-02T10:35:41;98645.16;;;26.83;37.82
77079;BME280;66004;55.096;38.760;2023-07-02T10:38:07;98647.06;;;26.76;38.26
77079;BME280;66004;55.096;38.760;2023-07-02T10:40:33;98646.72;;;26.84;38.07
77079;BME280;66004;55.096;38.760;2023-07-02T10:42:59;98661.81;;;26.78;38.05
77079;BME280;66004;55.096;38.760;2023-07-02T10:45:32;98653.28;;;26.84;38.08
77079;BME280;66004;55.096;38.760;2023-07-02T10:47:58;98660.78;;;27.00;38.60
77079;BME280;66004;55.096;38.760;2023-07-02T10:50:24;98662.63;;;27.12;38.70
77079;BME280;66004;55.096;38.760;2023-07-02T10:52:50;98663.38;;;26.98;38.08
77079;BME280;66004;55.096;38.760;2023-07-02T10:55:20;98656.31;;;26.90;37.99
77079;BME280;66004;55.096;38.760;2023-07-02T10:57:47;98661.63;;;26.82;38.54
77079;BME280;66004;55.096;38.760;2023-07-02T11:00:14;98661.78;;;26.88;37.75
77079;BME280;66004;55.096;38.760;2023-07-02T11:02:40;98653.94;;;26.88;38.20
77079;BME280;66004;55.096;38.760;2023-07-02T11:05:07;98647.34;;;26.88;38.18
77079;BME280;66004;55.096;38.760;2023-07-02T11:07:37;98670.03;;;27.13;38.63
77079;BME280;66004;55.096;38.760;2023-07-02T11:10:02;98661.38;;;27.13;38.78
77079;BME280;66004;55.096;38.760;2023-07-02T11:12:29;98647.28;;;27.06;38.35
77079;BME280;66004;55.096;38.760;2023-07-02T11:14:55;98670.38;;;27.06;38.33
77079;BME280;66004;55.096;38.760;2023-07-02T11:17:25;98671.44;;;26.85;38.64
77079;BME280;66004;55.096;38.760;2023-07-02T11:19:52;98674.66;;;26.68;38.66
77079;BME280;66004;55.096;38.760;2023-07-02T11:22:18;98669.06;;;26.65;38.72
77079;BME280;66004;55.096;38.760;2023-07-02T11:24:43;98667.31;;;26.49;39.00
77079;BME280;66004;55.096;38.760;2023-07-02T11:27:09;98674.03;;;26.46;39.39
77079;BME280;66004;55.096;38.760;2023-07-02T11:29:35;98670.81;;;26.53;39.00
77079;BME280;66004;55.096;38.760;2023-07-02T11:32:10;98680.75;;;26.42;38.54
77079;BME280;66004;55.096;38.760;2023-07-02T11:34:36;98677.41;;;26.26;38.73
77079;BME280;66004;55.096;38.760;2023-07-02T11:37:02;98667.34;;;26.12;38.99
77079;BME280;66004;55.096;38.760;2023-07-02T11:39:28;98680.78;;;26.24;39.02
77079;BME280;66004;55.096;38.760;2023-07-02T11:41:54;98675.03;;;26.24;39.11
77079;BME280;66004;55.096;38.760;2023-07-02T11:44:20;98672.16;;;26.06;39.09
77079;BME280;66004;55.096;38.760;2023-07-02T11:46:47;98677.28;;;26.01;39.76
77079;BME280;66004;55.096;38.760;2023-07-02T11:49:13;98679.03;;;26.08;40.01
77079;BME280;66004;55.096;38.760;2023-07-02T11:51:40;98672.16;;;26.06;40.12
77079;BME280;66004;55.096;38.760;2023-07-02T11:54:06;98678.06;;;25.93;40.19
77079;BME280;66004;55.096;38.760;2023-07-02T11:56:32;98672.72;;;25.82;39.97
77079;BME280;66004;55.096;38.760;2023-07-02T11:58:58;98675.91;;;25.75;39.35
77079;BME280;66004;55.096;38.760;2023-07-02T12:01:23;98666.97;;;25.82;39.25
77079;BME280;66004;55.096;38.760;2023-07-02T12:03:49;98664.75;;;25.95;38.70
77079;BME280;66004;55.096;38.760;2023-07-02T12:06:14;98673.72;;;25.97;39.15
77079;BME280;66004;55.096;38.760;2023-07-02T12:08:40;98669.25;;;26.06;38.79
77079;BME280;66004;55.096;38.760;2023-07-02T12:11:07;98665.56;;;26.33;38.80
77079;BME280;66004;55.096;38.760;2023-07-02T12:13:33;98661.88;;;26.60;38.38
77079;BME280;66004;55.096;38.760;2023-07-02T12:15:58;98666.44;;;26.85;37.18
77079;BME280;66004;55.096;38.760;2023-07-02T12:18:24;98673.59;;;26.99;36.42
77079;BME280;66004;55.096;38.760;2023-07-02T12:20:50;98650.38;;;26.93;36.30
77079;BME280;66004;55.096;38.760;2023-07-02T12:23:15;98680.38;;;26.96;36.16
77079;BME280;66004;55.096;38.760;2023-07-02T12:25:41;98682.63;;;26.92;36.27
77079;BME280;66004;55.096;38.760;2023-07-02T12:28:06;98671.44;;;26.85;36.38
77079;BME280;66004;55.096;38.760;2023-07-02T12:30:32;98669.50;;;26.82;35.86
77079;BME280;66004;55.096;38.760;2023-07-02T12:32:58;98683.91;;;26.91;35.37
77079;BME280;66004;55.096;38.760;2023-07-02T12:35:24;98677.03;;;26.88;35.43
77079;BME280;66004;55.096;38.760;2023-07-02T12:37:51;98681.69;;;26.76;35.29
77079;BME280;66004;55.096;38.760;2023-07-02T12:40:17;98679.50;;;26.62;35.43
77079;BME280;66004;55.096;38.760;2023-07-02T12:42:44;98675.28;;;26.54;35.70
77079;BME280;66004;55.096;38.760;2023-07-02T12:45:11;98672.78;;;26.47;34.96
77079;BME280;66004;55.096;38.760;2023-07-02T12:47:38;98676.94;;;26.36;35.47
77079;BME280;66004;55.096;38.760;2023-07-02T12:50:04;98663.50;;;26.24;35.18
77079;BME280;66004;55.096;38.760;2023-07-02T12:52:30;98675.34;;;26.26;35.62